Terminal Aerodrome Forecast
Issued by NWS

Home | Current Version | Previous Version | Text Only | Print | Product List | Glossary On
Versions: 1 2 3 4 5 6 7 8 9 10 11 12 13 14 15 16 17 18 19 20 21 22 23 24 25 26 27 28 29
000
FTUS44 KOUN 201139 CCA
TAFGAG
TAF COR
KGAG 201139Z 2012/2112 31003KT 1/4SM FG VV001
      TEMPO 2012/2015 3SM BR
     FM201500 29005KT 6SM BR BKN006
     FM201700 23020G29KT P6SM SCT250
     FM210000 21010KT P6SM BKN250=

USA.gov is the U.S. government's official web portal to all federal, state and local government web resources and services.